Time;durP1;ratioP1;P1;durP2;ratioP2;P2;SDS_P1;SDS_P2;PMS_P1;PMS_P2;Temp;Humidity;BMP_temperature;BMP_pressure;BME280_temperature;BME280_humidity;BME280_pressure;Samples;Min_cycle;Max_cycle;Signal;HPM_P1;HPM_P2
2022/09/04 00:01:41;;;;;;;7.63;6.32;;;;;;;25.18;60.51;101162.50;5134867;27;20047;-73
2022/09/04 00:04:37;;;;;;;6.43;5.47;;;;;;;25.19;60.64;101169.59;5132921;27;20058;-73
2022/09/04 00:07:17;;;;;;;6.10;5.38;;;;;;;25.18;60.70;101174.16;5051266;28;20060;-73
2022/09/04 00:10:21;;;;;;;6.80;6.13;;;;;;;25.20;60.64;101169.44;5051779;28;20128;-73
2022/09/04 00:13:07;;;;;;;7.03;5.70;;;;;;;25.19;60.73;101173.16;5033265;28;20060;-73
2022/09/04 00:15:55;;;;;;;6.18;5.57;;;;;;;25.20;60.52;101171.28;5031582;28;20045;-73
2022/09/04 00:18:54;;;;;;;6.72;6.13;;;;;;;25.20;60.57;101168.56;5031354;28;20065;-73
2022/09/04 00:21:30;;;;;;;6.30;5.70;;;;;;;25.20;60.50;101172.16;4991233;28;20061;-73
2022/09/04 00:24:01;;;;;;;6.78;6.07;;;;;;;25.21;60.65;101159.47;4991784;28;20580;-73
2022/09/04 00:26:41;;;;;;;6.18;5.68;;;;;;;25.20;60.52;101165.88;4991718;28;20425;-73
2022/09/04 00:29:24;;;;;;;7.10;6.30;;;;;;;25.21;60.68;101170.28;4991994;28;20121;-74
2022/09/04 00:32:17;;;;;;;5.68;5.13;;;;;;;25.22;60.40;101174.69;4991686;28;20065;-73
2022/09/04 00:35:08;;;;;;;6.72;6.03;;;;;;;25.22;60.63;101169.28;4991860;28;20050;-73
2022/09/04 00:37:47;;;;;;;6.45;5.65;;;;;;;25.22;60.55;101166.56;4991365;28;20065;-73
2022/09/04 00:40:39;;;;;;;5.65;5.15;;;;;;;25.20;60.48;101157.75;4991698;28;20062;-73
2022/09/04 00:43:25;;;;;;;6.33;5.73;;;;;;;25.20;60.37;101161.31;5001142;28;20053;-73
2022/09/04 00:46:26;;;;;;;7.55;6.40;;;;;;;25.21;60.44;101163.00;5071299;28;20527;-73
2022/09/04 00:49:02;;;;;;;6.13;5.60;;;;;;;25.22;60.28;101166.56;5070775;28;20052;-73
2022/09/04 00:51:29;;;;;;;7.85;6.32;;;;;;;25.22;60.63;101161.16;5071117;28;20056;-73
2022/09/04 00:54:26;;;;;;;6.78;6.18;;;;;;;25.22;60.48;101158.44;5054911;28;20400;-73
2022/09/04 00:57:43;;;;;;;7.40;6.05;;;;;;;25.21;60.57;101156.75;5096946;28;20055;-73
2022/09/04 01:00:19;;;;;;;6.55;5.95;;;;;;;25.21;60.49;101146.75;5134664;27;20046;-73
2022/09/04 01:03:02;;;;;;;6.60;6.00;;;;;;;25.22;60.35;101147.59;5138094;27;20043;-74
2022/09/04 01:06:14;;;;;;;6.65;6.00;;;;;;;25.22;60.57;101150.31;5138105;27;20050;-74
2022/09/04 01:08:54;;;;;;;6.40;5.80;;;;;;;25.22;60.55;101153.03;5134589;27;20058;-73
2022/09/04 01:11:28;;;;;;;6.53;5.93;;;;;;;25.21;60.36;101152.19;5138530;27;20050;-73
2022/09/04 01:14:17;;;;;;;6.50;5.80;;;;;;;25.22;60.37;101156.56;5125578;27;20048;-73
2022/09/04 01:17:05;;;;;;;6.47;5.97;;;;;;;25.22;60.54;101158.44;5117430;28;20111;-74
2022/09/04 01:19:56;;;;;;;7.25;6.55;;;;;;;25.22;60.56;101163.84;5115967;28;20067;-74
2022/09/04 01:22:31;;;;;;;6.85;6.15;;;;;;;25.22;60.64;101166.56;5096095;28;20038;-73
2022/09/04 01:25:17;;;;;;;7.90;6.65;;;;;;;25.22;60.33;101180.97;5097245;28;20044;-73
2022/09/04 01:28:25;;;;;;;7.07;6.47;;;;;;;25.22;60.59;101180.13;5096655;28;20054;-71
2022/09/04 01:31:15;;;;;;;7.95;6.22;;;;;;;25.22;60.45;101186.38;5014756;28;20425;-73
2022/09/04 01:34:01;;;;;;;7.68;6.97;;;;;;;25.21;60.61;101190.09;5014485;28;20058;-73
2022/09/04 01:36:53;;;;;;;7.85;7.00;;;;;;;25.22;60.49;101193.66;5014534;28;20049;-74
2022/09/04 01:39:24;;;;;;;7.47;6.70;;;;;;;25.23;60.50;101195.34;5014912;28;20057;-73
2022/09/04 01:42:07;;;;;;;7.22;6.53;;;;;;;25.22;60.58;101197.22;4997649;28;20053;-73
2022/09/04 01:44:35;;;;;;;8.05;7.25;;;;;;;25.23;60.48;101206.19;5014805;28;20049;-73
2022/09/04 01:47:34;;;;;;;7.75;7.07;;;;;;;25.22;60.50;101207.22;5014523;28;20062;-73
2022/09/04 01:50:09;;;;;;;7.28;6.65;;;;;;;25.22;60.43;101201.78;5014126;28;20061;-73
2022/09/04 01:52:57;;;;;;;7.75;7.05;;;;;;;25.22;60.37;101201.78;5014075;28;20053;-73
2022/09/04 01:55:30;;;;;;;7.65;7.00;;;;;;;25.23;60.43;101198.06;5014204;28;20057;-73
2022/09/04 01:58:08;;;;;;;7.40;6.68;;;;;;;25.22;60.36;101191.81;5014501;28;20061;-73
2022/09/04 02:00:59;;;;;;;7.28;6.53;;;;;;;25.21;60.48;101190.09;5041769;28;20060;-73
2022/09/04 02:03:46;;;;;;;7.05;6.45;;;;;;;25.22;60.41;101186.38;5053754;28;20049;-73
2022/09/04 02:06:26;;;;;;;6.80;6.03;;;;;;;25.21;60.40;101195.53;5060926;27;20249;-73
2022/09/04 02:09:16;;;;;;;6.97;6.10;;;;;;;25.22;60.36;101190.94;5137287;27;20046;-73
2022/09/04 02:11:52;;;;;;;6.75;6.15;;;;;;;25.22;60.34;101197.22;5136329;27;20050;-73
2022/09/04 02:14:32;;;;;;;7.85;6.82;;;;;;;25.22;60.25;101191.81;5121697;27;20051;-73
2022/09/04 02:17:09;;;;;;;7.28;6.57;;;;;;;25.22;60.47;101196.38;5115262;28;20058;-73
2022/09/04 02:19:43;;;;;;;7.72;6.93;;;;;;;25.22;60.44;101196.38;5116859;28;20048;-73
2022/09/04 02:22:26;;;;;;;7.20;6.50;;;;;;;25.22;60.42;101201.78;5100410;28;20039;-73
2022/09/04 02:25:09;;;;;;;7.75;6.70;;;;;;;25.22;60.28;101202.63;5096111;28;20040;-73
2022/09/04 02:27:55;;;;;;;7.55;6.70;;;;;;;25.21;60.22;101184.69;5095985;28;20047;-73
2022/09/04 02:30:22;;;;;;;7.25;6.43;;;;;;;25.21;60.45;101176.56;5095702;28;20051;-74
2022/09/04 02:32:52;;;;;;;6.97;6.35;;;;;;;25.22;60.31;101185.53;5095776;28;20044;-73
2022/09/04 02:35:47;;;;;;;7.82;6.72;;;;;;;25.22;60.53;101177.41;5095353;28;20376;-73
2022/09/04 02:38:14;;;;;;;8.18;7.28;;;;;;;25.23;60.39;101170.97;5093414;28;20495;-73
2022/09/04 02:40:42;;;;;;;7.00;6.30;;;;;;;25.21;60.29;101176.56;5095263;28;20407;-73
2022/09/04 02:43:18;;;;;;;7.20;6.60;;;;;;;25.22;60.23;101185.53;5095664;28;20040;-73
2022/09/04 02:46:04;;;;;;;6.97;6.28;;;;;;;25.22;60.30;101174.69;5134819;27;20039;-73
2022/09/04 02:49:07;;;;;;;6.78;6.18;;;;;;;25.22;60.33;101174.69;5136134;27;20043;-73
2022/09/04 02:51:40;;;;;;;8.30;7.50;;;;;;;25.22;60.48;101170.13;5136102;27;20051;-73
2022/09/04 02:54:24;;;;;;;6.70;6.15;;;;;;;25.21;60.15;101167.59;5136418;27;20047;-73
2022/09/04 02:57:37;;;;;;;7.53;6.82;;;;;;;25.21;60.28;101170.28;5136144;27;20478;-73
2022/09/04 03:00:18;;;;;;;6.85;6.25;;;;;;;25.21;60.16;101165.72;5132669;27;20586;-74
2022/09/04 03:03:15;;;;;;;7.28;6.60;;;;;;;25.22;60.36;101169.28;5135878;27;20050;-74
2022/09/04 03:05:57;;;;;;;7.55;6.72;;;;;;;25.22;60.25;101166.56;5134226;27;20047;-73
2022/09/04 03:08:35;;;;;;;7.85;7.10;;;;;;;25.22;60.17;101172.00;5134962;27;20120;-73
2022/09/04 03:11:35;;;;;;;8.85;7.47;;;;;;;25.21;60.22;101178.44;5133951;27;20047;-73
2022/09/04 03:14:14;;;;;;;7.70;7.00;;;;;;;25.20;60.20;101183.00;5115403;27;20047;-73
2022/09/04 03:16:58;;;;;;;7.13;6.53;;;;;;;25.21;60.32;101195.53;5115633;28;20040;-73
2022/09/04 03:19:41;;;;;;;6.25;5.70;;;;;;;25.21;60.09;101197.41;5115338;28;20062;-73
2022/09/04 03:22:26;;;;;;;7.03;6.35;;;;;;;25.21;60.04;101197.41;5108415;28;20032;-73
2022/09/04 03:25:25;;;;;;;8.27;7.25;;;;;;;25.21;59.99;101200.94;5111950;28;20051;-74
2022/09/04 03:27:52;;;;;;;14.32;10.80;;;;;;;25.21;60.76;101200.94;5096287;28;20056;-73
2022/09/04 03:30:20;;;;;;;15.05;13.45;;;;;;;25.19;59.98;101212.94;5115297;28;20043;-76
2022/09/04 03:33:01;;;;;;;13.73;12.43;;;;;;;25.14;59.96;101199.88;5113463;28;20039;-73
2022/09/04 03:35:48;;;;;;;13.05;11.75;;;;;;;25.10;59.89;101204.78;5114858;28;20040;-72
2022/09/04 03:38:24;;;;;;;11.38;10.27;;;;;;;25.11;60.10;101216.47;5114522;28;20059;-73
2022/09/04 03:41:25;;;;;;;11.70;9.80;;;;;;;25.10;60.24;101226.44;5113217;28;20063;-73
2022/09/04 03:44:11;;;;;;;12.27;10.98;;;;;;;25.10;60.34;101220.19;5114716;28;20047;-73
2022/09/04 03:46:51;;;;;;;18.10;16.27;;;;;;;25.02;60.09;101217.41;5114539;28;20043;-73
2022/09/04 03:49:57;;;;;;;19.08;17.20;;;;;;;24.86;60.41;101218.97;5114614;28;20048;-77
2022/09/04 03:52:52;;;;;;;19.15;17.30;;;;;;;24.83;60.88;101222.03;5100973;28;20410;-73
2022/09/04 03:55:43;;;;;;;19.85;18.00;;;;;;;24.78;60.85;101223.50;5114358;28;20047;-72
2022/09/04 03:58:13;;;;;;;19.90;17.38;;;;;;;24.76;61.11;101222.81;5114257;28;20043;-73
2022/09/04 04:01:17;;;;;;;21.77;19.58;;;;;;;24.74;61.30;101217.53;5124859;27;20050;-73
2022/09/04 04:04:14;;;;;;;19.23;17.20;;;;;;;24.75;61.00;101221.09;5124210;27;20044;-73
2022/09/04 04:06:44;;;;;;;17.77;15.90;;;;;;;24.75;60.93;101230.06;5105187;28;20044;-76
2022/09/04 04:09:14;;;;;;;17.95;16.38;;;;;;;24.77;60.85;101233.47;5093738;28;20043;-74
2022/09/04 04:11:52;;;;;;;19.63;17.83;;;;;;;24.77;60.60;101235.34;5109294;28;20055;-73
2022/09/04 04:14:37;;;;;;;23.58;21.40;;;;;;;24.76;60.74;101239.91;5100066;28;20055;-73
2022/09/04 04:17:30;;;;;;;20.33;18.38;;;;;;;24.76;60.65;101244.47;5094382;28;20047;-73
2022/09/04 04:20:24;;;;;;;18.00;16.23;;;;;;;24.77;60.61;101244.31;5094196;28;20044;-73
2022/09/04 04:23:09;;;;;;;14.35;12.85;;;;;;;24.79;60.90;101244.16;5094587;28;20498;-73
2022/09/04 04:25:49;;;;;;;16.65;12.15;;;;;;;24.81;60.84;101242.16;5093640;28;20056;-73
2022/09/04 04:28:31;;;;;;;11.98;10.77;;;;;;;24.84;60.81;101248.09;5091695;28;20055;-73
2022/09/04 04:31:33;;;;;;;10.63;9.63;;;;;;;24.86;60.78;101254.19;5094319;28;20048;-73
2022/09/04 04:34:20;;;;;;;9.75;8.13;;;;;;;24.88;60.58;101254.06;5089582;28;20528;-73
2022/09/04 04:37:37;;;;;;;9.30;8.50;;;;;;;24.90;60.48;101257.44;5108652;28;20044;-73
2022/09/04 04:40:19;;;;;;;9.32;8.07;;;;;;;24.92;60.27;101266.28;5090898;28;20067;-73
2022/09/04 04:43:13;;;;;;;9.35;6.93;;;;;;;24.93;60.38;101265.25;5094187;28;20048;-73
2022/09/04 04:45:59;;;;;;;7.90;7.15;;;;;;;24.95;60.36;101260.50;5093825;28;20506;-72
2022/09/04 04:48:48;;;;;;;8.25;7.38;;;;;;;24.96;60.29;101262.22;5094166;28;20052;-73
2022/09/04 04:51:31;;;;;;;7.68;6.97;;;;;;;24.97;60.25;101260.38;5091419;28;20051;-73
2022/09/04 04:54:16;;;;;;;7.65;6.95;;;;;;;24.99;59.93;101263.75;5093833;28;20495;-72
2022/09/04 04:56:56;;;;;;;9.05;6.57;;;;;;;24.99;60.03;101264.59;5093502;28;20502;-73
2022/09/04 05:00:05;;;;;;;7.35;6.72;;;;;;;24.99;60.02;101275.44;5094352;28;20055;-73
2022/09/04 05:03:08;;;;;;;7.22;5.93;;;;;;;25.00;59.78;101273.59;5093403;28;20055;-73
2022/09/04 05:05:54;;;;;;;6.47;5.88;;;;;;;25.00;59.87;101279.88;5094057;28;20467;-73
2022/09/04 05:08:49;;;;;;;6.97;6.28;;;;;;;25.01;59.87;101286.13;5093697;28;20044;-73
2022/09/04 05:11:28;;;;;;;7.50;6.80;;;;;;;25.01;59.82;101297.81;5093504;28;20518;-73
2022/09/04 05:14:26;;;;;;;6.75;6.25;;;;;;;25.01;59.89;101292.41;5093944;28;20043;-73
2022/09/04 05:17:39;;;;;;;8.55;6.10;;;;;;;25.02;59.80;101287.81;5093336;28;20402;-73
2022/09/04 05:20:13;;;;;;;6.33;5.73;;;;;;;25.02;59.86;101299.50;5084594;28;20079;-73
2022/09/04 05:22:43;;;;;;;6.25;5.65;;;;;;;25.02;59.73;101290.53;5094110;28;20048;-73
2022/09/04 05:25:35;;;;;;;6.45;5.82;;;;;;;25.02;59.93;101304.94;5093161;28;20510;-73
2022/09/04 05:28:08;;;;;;;6.60;5.95;;;;;;;25.03;59.62;101301.19;5092583;28;20048;-73
2022/09/04 05:30:54;;;;;;;6.45;5.93;;;;;;;25.04;59.88;101302.06;5093277;28;20482;-73
2022/09/04 05:33:54;;;;;;;6.43;5.47;;;;;;;25.03;59.55;101290.38;5093757;28;20048;-73
2022/09/04 05:36:36;;;;;;;8.30;5.63;;;;;;;25.04;59.80;101286.66;5093443;28;20055;-73
2022/09/04 05:39:29;;;;;;;8.73;6.13;;;;;;;25.04;59.72;101283.13;5093289;28;20048;-73
2022/09/04 05:42:15;;;;;;;5.90;5.35;;;;;;;25.05;59.54;101282.09;5088476;28;20048;-73
2022/09/04 05:44:55;;;;;;;6.03;5.43;;;;;;;25.04;59.70;101288.53;5091823;28;20044;-73
2022/09/04 05:47:43;;;;;;;5.90;5.40;;;;;;;25.03;59.68;101287.66;5093883;28;20044;-73
2022/09/04 05:50:43;;;;;;;5.72;5.18;;;;;;;25.04;59.63;101281.25;5097598;28;20044;-73
2022/09/04 05:53:19;;;;;;;7.03;6.35;;;;;;;25.04;59.74;101275.84;5097120;28;20043;-73
2022/09/04 05:56:12;;;;;;;5.90;5.38;;;;;;;25.05;59.56;101284.81;5097185;28;20052;-73
2022/09/04 05:58:45;;;;;;;6.20;5.33;;;;;;;25.05;59.52;101287.53;5097069;28;20394;-73
2022/09/04 06:01:30;;;;;;;5.72;5.22;;;;;;;25.05;59.62;101285.66;5097333;28;20383;-73
2022/09/04 06:04:18;;;;;;;6.10;5.45;;;;;;;25.05;59.59;101288.38;5095859;28;20059;-73
2022/09/04 06:07:01;;;;;;;5.55;5.07;;;;;;;25.05;59.50;101299.19;5096933;28;20490;-73
2022/09/04 06:09:50;;;;;;;6.68;5.93;;;;;;;25.05;59.61;101304.63;5095447;28;20040;-73
2022/09/04 06:12:35;;;;;;;6.05;5.53;;;;;;;25.06;59.71;101306.31;5096573;28;20052;-73
2022/09/04 06:15:23;;;;;;;6.07;5.47;;;;;;;25.07;59.45;101309.88;5096920;28;20471;-73
2022/09/04 06:18:34;;;;;;;6.18;5.55;;;;;;;25.07;59.44;101308.00;5096995;28;20043;-72
2022/09/04 06:21:02;;;;;;;6.18;5.63;;;;;;;25.06;59.48;101311.72;5055335;28;20052;-73
2022/09/04 06:23:50;;;;;;;6.57;5.38;;;;;;;25.07;59.66;101308.00;5054390;28;20148;-73
2022/09/04 06:26:23;;;;;;;5.35;4.95;;;;;;;25.07;59.71;101318.84;5054432;28;20424;-73
2022/09/04 06:29:00;;;;;;;6.13;5.55;;;;;;;25.07;59.38;101313.41;5054214;28;20044;-73
2022/09/04 06:31:43;;;;;;;5.63;5.13;;;;;;;25.08;59.52;101314.31;5055012;28;20425;-73
2022/09/04 06:34:50;;;;;;;6.05;5.55;;;;;;;25.08;59.55;101315.16;5054460;28;20049;-73
2022/09/04 06:37:33;;;;;;;5.55;5.05;;;;;;;25.09;59.60;101319.59;5053512;28;20496;-73
2022/09/04 06:40:36;;;;;;;5.25;4.78;;;;;;;25.09;59.47;101325.00;5053505;28;20055;-73
2022/09/04 06:43:26;;;;;;;5.97;5.47;;;;;;;25.09;59.40;101333.13;5053501;28;20049;-73
2022/09/04 06:46:18;;;;;;;6.32;5.72;;;;;;;25.10;59.51;101332.09;5053393;28;20053;-73
2022/09/04 06:48:52;;;;;;;5.85;5.35;;;;;;;25.10;59.55;101344.81;5037896;28;20396;-73
2022/09/04 06:51:25;;;;;;;6.35;5.75;;;;;;;25.10;59.55;101344.81;5053728;28;20055;-73
2022/09/04 06:53:55;;;;;;;5.97;5.47;;;;;;;25.09;59.54;101343.97;5054191;28;20059;-73
2022/09/04 06:56:35;;;;;;;6.72;5.70;;;;;;;25.10;59.65;101334.81;5057858;28;20048;-73
2022/09/04 06:59:08;;;;;;;6.88;5.70;;;;;;;25.10;59.51;101342.94;5095543;28;20062;-73
2022/09/04 07:01:59;;;;;;;6.22;5.60;;;;;;;25.11;59.68;101341.09;5096521;28;20047;-73
2022/09/04 07:04:45;;;;;;;5.82;5.32;;;;;;;25.11;59.44;101357.34;5095826;28;20044;-73
2022/09/04 07:07:38;;;;;;;5.97;5.43;;;;;;;25.11;59.42;101366.31;5095421;28;20067;-73
2022/09/04 07:10:24;;;;;;;5.78;5.28;;;;;;;25.11;59.27;101374.44;5095762;28;20059;-73
2022/09/04 07:12:57;;;;;;;5.82;5.20;;;;;;;25.11;59.50;101379.84;5095172;28;20044;-73
2022/09/04 07:15:43;;;;;;;5.65;5.15;;;;;;;25.12;59.53;101367.19;5095402;28;20051;-73
2022/09/04 07:18:37;;;;;;;5.88;5.38;;;;;;;25.12;59.25;101381.59;5095588;28;20047;-73
2022/09/04 07:21:23;;;;;;;5.85;5.35;;;;;;;25.12;59.44;101391.56;5089538;28;20060;-73
2022/09/04 07:24:06;;;;;;;5.65;5.15;;;;;;;25.12;59.38;101395.13;5093826;28;20071;-73
2022/09/04 07:27:15;;;;;;;5.15;4.65;;;;;;;25.12;59.56;101391.56;5095236;28;20055;-73
2022/09/04 07:30:03;;;;;;;5.95;5.22;;;;;;;25.13;59.47;101388.69;5089316;28;20067;-73
2022/09/04 07:32:51;;;;;;;7.05;5.05;;;;;;;25.13;59.38;101386.00;5093560;28;20048;-73
2022/09/04 07:35:40;;;;;;;5.65;5.15;;;;;;;25.15;59.23;101396.66;5094852;28;20055;-73
2022/09/04 07:38:33;;;;;;;5.65;5.15;;;;;;;25.14;59.36;101393.09;5093569;28;20399;-73
2022/09/04 07:41:14;;;;;;;5.40;4.93;;;;;;;25.15;59.31;101399.38;5094800;28;20051;-73
2022/09/04 07:44:04;;;;;;;5.00;4.60;;;;;;;25.14;59.41;101401.22;5093665;28;20044;-73
2022/09/04 07:46:45;;;;;;;5.82;5.32;;;;;;;25.17;59.28;101401.94;5094975;28;20383;-73
2022/09/04 07:49:35;;;;;;;5.68;5.18;;;;;;;25.15;59.18;101405.63;5093940;28;20047;-73
2022/09/04 07:52:24;;;;;;;5.63;5.13;;;;;;;25.17;59.23;101404.66;5094924;28;20063;-74
2022/09/04 07:55:09;;;;;;;5.65;5.05;;;;;;;25.18;59.35;101400.94;5094920;28;20051;-73
2022/09/04 07:57:36;;;;;;;5.72;5.22;;;;;;;25.18;59.27;101398.22;5092655;28;20406;-73
2022/09/04 08:00:21;;;;;;;5.38;4.88;;;;;;;25.18;59.29;101395.50;5094218;28;20055;-73
2022/09/04 08:03:12;;;;;;;5.60;5.10;;;;;;;25.18;59.14;101393.66;5095089;28;20044;-73
2022/09/04 08:06:03;;;;;;;5.15;4.65;;;;;;;25.19;59.34;101397.19;5094348;28;20063;-73
2022/09/04 08:09:07;;;;;;;5.25;4.80;;;;;;;25.21;59.22;101416.88;5094583;28;20032;-73
2022/09/04 08:12:13;;;;;;;5.22;4.80;;;;;;;25.20;59.29;101409.72;5094010;28;20055;-73
2022/09/04 08:14:54;;;;;;;5.28;4.78;;;;;;;25.21;59.27;101408.75;5051649;28;20436;-73
2022/09/04 08:17:35;;;;;;;5.13;4.72;;;;;;;25.20;59.05;101424.16;5052407;28;20053;-73
2022/09/04 08:20:21;;;;;;;4.85;4.32;;;;;;;25.21;59.29;101425.00;5051894;28;20533;-73
2022/09/04 08:23:04;;;;;;;5.25;4.43;;;;;;;25.23;59.42;101436.53;5052181;28;20056;-73
2022/09/04 08:26:12;;;;;;;5.75;5.25;;;;;;;25.21;59.20;101433.97;5035104;28;20053;-73
2022/09/04 08:28:55;;;;;;;5.63;5.13;;;;;;;25.21;59.11;101433.97;5034412;28;20060;-73
2022/09/04 08:31:49;;;;;;;;;;;;;;;25.22;59.12;101429.41;5034646;28;20053;-73
2022/09/04 08:34:42;;;;;;;5.70;5.20;;;;;;;25.22;59.18;101432.97;5051835;28;20339;-73
2022/09/04 08:37:32;;;;;;;5.75;4.55;;;;;;;25.23;59.18;101436.53;5051936;28;20464;-73
2022/09/04 08:40:10;;;;;;;5.72;5.22;;;;;;;25.23;59.19;101434.66;5051070;28;20056;-73
2022/09/04 08:42:56;;;;;;;5.72;5.10;;;;;;;25.23;59.36;101437.38;5052083;28;20052;-73
2022/09/04 08:45:57;;;;;;;5.72;5.22;;;;;;;25.24;59.13;101432.78;5070197;28;20075;-74
2022/09/04 08:48:43;;;;;;;5.65;5.15;;;;;;;25.24;59.19;101435.50;5093577;28;20098;-73
2022/09/04 08:51:38;;;;;;;5.35;4.85;;;;;;;25.23;59.20;101429.25;5094379;28;20058;-73
2022/09/04 08:54:24;;;;;;;5.10;4.70;;;;;;;25.24;59.10;101436.38;5091772;28;20051;-73
2022/09/04 08:57:04;;;;;;;5.07;4.63;;;;;;;25.24;59.17;101428.25;5094363;28;20055;-73
2022/09/04 09:00:01;;;;;;;7.35;4.80;;;;;;;25.24;59.06;101422.84;5093505;28;20048;-73
2022/09/04 09:02:37;;;;;;;5.28;4.78;;;;;;;25.25;59.08;101427.25;5079794;28;20418;-73
2022/09/04 09:05:08;;;;;;;5.70;4.75;;;;;;;25.25;59.05;101419.13;5091875;28;20056;-73
2022/09/04 09:07:56;;;;;;;5.00;4.50;;;;;;;25.26;59.11;101419.97;5093543;28;20048;-73
2022/09/04 09:10:26;;;;;;;4.85;4.45;;;;;;;25.27;58.97;101416.22;5093738;28;20398;-73
2022/09/04 09:13:15;;;;;;;4.85;4.45;;;;;;;25.26;59.17;101419.97;5093420;28;20052;-74
2022/09/04 09:16:24;;;;;;;7.13;4.45;;;;;;;25.26;59.02;101419.97;5093548;28;20059;-73
2022/09/04 09:19:08;;;;;;;5.00;4.60;;;;;;;25.28;58.94;101429.66;5079818;28;20052;-73
2022/09/04 09:21:44;;;;;;;5.20;4.70;;;;;;;25.28;59.02;101416.09;5094943;28;20043;-73
2022/09/04 09:24:45;;;;;;;5.13;4.72;;;;;;;25.28;59.08;101423.34;5097232;28;20410;-73
2022/09/04 09:27:32;;;;;;;4.97;4.53;;;;;;;25.27;59.07;101419.78;5095073;28;20048;-73
2022/09/04 09:30:05;;;;;;;4.63;4.22;;;;;;;25.28;58.86;101428.78;5097737;28;20044;-73
2022/09/04 09:32:59;;;;;;;4.97;4.57;;;;;;;25.28;58.92;101428.78;5097038;28;20051;-73
2022/09/04 09:36:13;;;;;;;5.32;4.82;;;;;;;25.28;58.77;101426.94;5097944;28;20048;-73
2022/09/04 09:38:59;;;;;;;5.68;5.07;;;;;;;25.29;58.89;101430.50;5095121;28;20056;-73
2022/09/04 09:41:52;;;;;;;5.13;4.63;;;;;;;25.30;58.78;101434.91;5097639;28;20471;-73
2022/09/04 09:44:44;;;;;;;5.00;4.50;;;;;;;25.29;58.79;101431.34;5097703;28;20470;-73
2022/09/04 09:47:41;;;;;;;5.32;4.60;;;;;;;25.30;58.98;101426.78;5097359;28;20284;-73
2022/09/04 09:50:46;;;;;;;5.63;4.85;;;;;;;25.30;58.88;101421.34;5097527;28;20044;-73
2022/09/04 09:53:44;;;;;;;5.50;5.00;;;;;;;25.29;58.88;101416.94;5097538;28;20463;-73
2022/09/04 09:56:51;;;;;;;4.80;4.40;;;;;;;25.30;58.72;101407.78;5096637;28;20047;-73
2022/09/04 09:59:38;;;;;;;4.53;4.03;;;;;;;25.30;58.91;101405.09;5097293;28;20047;-73
2022/09/04 10:02:43;;;;;;;4.72;4.32;;;;;;;25.31;58.91;101412.19;5094638;28;20529;-73
2022/09/04 10:05:43;;;;;;;5.50;5.00;;;;;;;25.30;58.98;101405.94;5096926;28;20387;-73
2022/09/04 10:08:17;;;;;;;5.60;5.07;;;;;;;25.30;58.77;101408.66;5094395;28;20059;-74
2022/09/04 10:11:41;;;;;;;4.65;4.25;;;;;;;25.31;58.82;101401.34;5096602;28;20048;-73
2022/09/04 10:14:08;;;;;;;5.38;4.65;;;;;;;25.31;58.87;101398.66;5053940;28;20080;-73
2022/09/04 10:17:13;;;;;;;4.55;4.15;;;;;;;25.31;58.87;101393.22;5054242;28;20057;-73
2022/09/04 10:20:14;;;;;;;4.93;4.53;;;;;;;25.32;58.98;101397.63;5054087;28;20068;-73
2022/09/04 10:23:04;;;;;;;4.80;4.40;;;;;;;25.31;58.92;101407.63;5054447;28;20055;-73
2022/09/04 10:26:01;;;;;;;4.90;4.40;;;;;;;25.31;58.69;101395.94;5026494;28;20064;-73
2022/09/04 10:28:51;;;;;;;4.93;4.43;;;;;;;25.32;58.85;101400.34;5054119;28;20041;-73
2022/09/04 10:31:50;;;;;;;4.60;4.20;;;;;;;25.32;58.86;101403.06;5054429;28;20061;-73
2022/09/04 10:34:55;;;;;;;4.63;4.22;;;;;;;25.33;58.77;101404.78;5048797;28;20163;-73
2022/09/04 10:37:59;;;;;;;5.05;4.55;;;;;;;25.33;58.66;101404.78;4993786;28;20171;-71
2022/09/04 10:40:44;;;;;;;5.05;4.65;;;;;;;25.33;58.75;101404.78;4994868;28;20042;-73
2022/09/04 10:43:35;;;;;;;4.45;4.05;;;;;;;25.33;58.80;101402.06;4994763;28;20058;-73
2022/09/04 10:46:28;;;;;;;5.05;4.40;;;;;;;25.32;58.76;101395.81;4994250;28;20062;-73
2022/09/04 10:49:07;;;;;;;;;;;;;;;25.33;58.72;101396.66;4991957;28;20050;-73
2022/09/04 10:51:38;;;;;;;4.60;4.20;;;;;;;25.33;58.76;101389.38;5016627;28;20415;-73
2022/09/04 10:54:27;;;;;;;5.05;4.55;;;;;;;25.33;58.61;101392.06;5034198;28;20060;-73
2022/09/04 10:57:21;;;;;;;4.80;4.40;;;;;;;25.34;58.74;101401.06;5016963;28;20056;-73
2022/09/04 10:59:55;;;;;;;4.95;4.45;;;;;;;25.33;58.69;101392.06;5033146;28;20037;-73
2022/09/04 11:03:02;;;;;;;4.95;4.45;;;;;;;25.34;58.63;101392.91;5033877;28;20436;-73
2022/09/04 11:05:33;;;;;;;4.60;4.20;;;;;;;25.34;58.78;101384.78;5016715;28;20058;-73
2022/09/04 11:08:08;;;;;;;4.60;4.20;;;;;;;25.34;58.69;101384.78;5033152;28;20562;-73
2022/09/04 11:11:04;;;;;;;4.68;4.28;;;;;;;25.35;58.73;101386.47;5033194;28;20511;-73
2022/09/04 11:14:08;;;;;;;4.65;4.25;;;;;;;25.34;58.84;101384.78;4974217;28;20046;-73
2022/09/04 11:16:49;;;;;;;4.47;4.07;;;;;;;25.35;58.83;101381.06;5012999;28;20081;-73
2022/09/04 11:19:19;;;;;;;4.22;3.90;;;;;;;25.34;58.82;101385.63;5013083;28;20486;-73
2022/09/04 11:22:24;;;;;;;4.70;4.20;;;;;;;25.35;58.74;101391.91;5013747;28;20417;-73
2022/09/04 11:25:19;;;;;;;4.18;3.83;;;;;;;25.35;58.62;101389.19;5013754;28;20050;-73
2022/09/04 11:27:50;;;;;;;4.43;4.03;;;;;;;25.35;58.75;101381.06;5013344;28;20054;-73
2022/09/04 11:30:19;;;;;;;4.13;3.78;;;;;;;25.34;58.89;101385.63;5012080;28;20045;-73
2022/09/04 11:33:05;;;;;;;4.57;4.18;;;;;;;25.36;58.79;101385.47;5013028;28;20058;-74
2022/09/04 11:36:00;;;;;;;4.15;3.75;;;;;;;25.36;58.47;101382.75;5012797;28;20057;-74
2022/09/04 11:38:42;;;;;;;4.05;3.65;;;;;;;25.36;58.62;101382.75;5013048;28;20421;-73
2022/09/04 11:41:47;;;;;;;4.50;4.13;;;;;;;25.36;58.73;101377.34;5013131;28;20046;-73
2022/09/04 11:44:45;;;;;;;4.47;4.07;;;;;;;25.36;58.65;101380.94;5012901;28;20054;-73
2022/09/04 11:47:24;;;;;;;4.45;4.05;;;;;;;25.36;58.57;101370.09;5012414;28;20050;-73
2022/09/04 11:50:15;;;;;;;4.88;4.47;;;;;;;25.37;58.55;101376.34;5033465;28;20056;-73
2022/09/04 11:52:51;;;;;;;3.97;3.58;;;;;;;25.36;58.62;101372.78;5093532;28;20052;-73
2022/09/04 11:55:40;;;;;;;4.85;4.40;;;;;;;25.36;58.69;101370.09;5093073;28;20047;-73
2022/09/04 11:58:29;;;;;;;4.72;4.25;;;;;;;25.36;58.56;101372.78;5094878;28;20471;-73
2022/09/04 12:01:26;;;;;;;4.63;4.22;;;;;;;25.36;58.64;101372.78;5094995;28;20470;-73
2022/09/04 12:04:22;;;;;;;4.20;3.80;;;;;;;25.36;58.60;101370.09;5094750;28;20071;-73
2022/09/04 12:07:12;;;;;;;4.50;4.10;;;;;;;25.37;58.63;101373.66;5094663;28;20040;-72
2022/09/04 12:09:57;;;;;;;4.47;4.07;;;;;;;25.37;58.82;101368.22;5094601;28;20365;-73
2022/09/04 12:12:40;;;;;;;4.00;3.70;;;;;;;25.37;58.54;101362.81;5094605;28;20051;-72
2022/09/04 12:15:26;;;;;;;4.40;4.00;;;;;;;25.36;58.59;101361.06;5094863;28;20071;-72
2022/09/04 12:18:11;;;;;;;4.88;3.75;;;;;;;25.36;58.66;101361.06;5094797;28;20059;-72
2022/09/04 12:20:56;;;;;;;4.65;4.25;;;;;;;25.37;58.51;101358.22;5094226;28;20051;-72
2022/09/04 12:23:26;;;;;;;4.00;3.70;;;;;;;25.37;58.56;101355.50;5094610;28;20052;-73
2022/09/04 12:26:08;;;;;;;4.00;3.70;;;;;;;25.37;58.41;101357.38;5093731;28;20044;-73
2022/09/04 12:28:46;;;;;;;4.45;4.03;;;;;;;25.37;58.56;101354.66;5093488;28;20048;-73
2022/09/04 12:31:31;;;;;;;4.13;3.72;;;;;;;25.36;58.55;101361.94;5094020;28;20036;-72
2022/09/04 12:34:18;;;;;;;4.18;3.85;;;;;;;25.36;58.53;101350.22;5094154;28;20044;-73
2022/09/04 12:36:58;;;;;;;4.00;3.70;;;;;;;25.37;58.57;101354.66;5094531;28;20040;-73
2022/09/04 12:39:47;;;;;;;4.40;4.00;;;;;;;25.37;58.43;101352.81;5094531;28;20063;-73
2022/09/04 12:42:40;;;;;;;4.40;4.00;;;;;;;25.37;58.62;101347.38;5094476;28;20052;-73
2022/09/04 12:45:10;;;;;;;4.20;3.78;;;;;;;25.37;58.32;101349.25;5092374;28;20047;-73
2022/09/04 12:47:56;;;;;;;4.30;4.00;;;;;;;25.37;58.50;101341.13;5091968;28;20044;-73
2022/09/04 12:51:00;;;;;;;4.57;4.18;;;;;;;25.37;58.46;101352.81;5092947;28;20036;-73
2022/09/04 12:53:46;;;;;;;4.63;4.22;;;;;;;25.38;58.37;101350.94;5093483;28;20387;-73
2022/09/04 12:56:41;;;;;;;4.32;3.92;;;;;;;25.38;58.35;101350.94;5095005;28;20048;-73